Time;durP1;ratioP1;P1;durP2;ratioP2;P2;SDS_P1;SDS_P2;PMS_P1;PMS_P2;Temp;Humidity;BMP_temperature;BMP_pressure;BME280_temperature;BME280_humidity;BME280_pressure;Samples;Min_cycle;Max_cycle;Signal;HPM_P1;HPM_P2
2022/09/11 00:00:52;;;;;;;25.85;22.98;;;15.10;99.90;;;;;;5004645;28;20478;-72
2022/09/11 00:03:23;;;;;;;25.15;22.60;;;14.40;99.90;;;;;;5006885;28;20045;-72
2022/09/11 00:05:49;;;;;;;28.58;22.98;;;14.40;99.90;;;;;;5004102;28;20086;-72
2022/09/11 00:08:17;;;;;;;25.73;22.52;;;14.40;99.90;;;;;;5006464;28;20041;-73
2022/09/11 00:10:43;;;;;;;25.77;23.15;;;14.30;99.90;;;;;;5007642;28;20592;-73
2022/09/11 00:13:13;;;;;;;25.90;23.13;;;14.30;99.90;;;;;;5005235;28;20520;-72
2022/09/11 00:15:44;;;;;;;28.30;23.20;;;14.20;99.90;;;;;;5008130;28;20057;-72
2022/09/11 00:18:12;;;;;;;25.55;22.98;;;14.20;99.90;;;;;;5004001;28;20100;-72
2022/09/11 00:20:38;;;;;;;24.67;22.15;;;14.20;99.90;;;;;;5007339;28;20037;-72
2022/09/11 00:23:04;;;;;;;25.92;22.90;;;14.20;99.90;;;;;;5004266;28;20049;-73
2022/09/11 00:25:39;;;;;;;23.80;21.38;;;14.20;99.90;;;;;;5000729;28;20136;-72
2022/09/11 00:28:05;;;;;;;25.45;22.13;;;14.20;99.90;;;;;;5008876;28;20044;-73
2022/09/11 00:30:31;;;;;;;24.58;22.08;;;14.20;99.90;;;;;;5004988;28;20621;-73
2022/09/11 00:32:57;;;;;;;25.38;22.73;;;14.40;99.90;;;;;;5007884;28;20148;-73
2022/09/11 00:35:23;;;;;;;25.30;22.70;;;14.20;99.90;;;;;;5004612;28;20060;-73
2022/09/11 00:37:49;;;;;;;24.52;21.92;;;14.20;99.90;;;;;;5006184;28;20056;-72
2022/09/11 00:40:16;;;;;;;25.52;23.05;;;14.20;99.90;;;;;;5003189;28;20045;-73
2022/09/11 00:42:41;;;;;;;24.38;21.85;;;14.20;99.90;;;;;;4990160;28;20504;-72
2022/09/11 00:45:20;;;;;;;27.33;22.52;;;14.20;99.90;;;;;;5003968;28;20069;-73
2022/09/11 00:47:47;;;;;;;25.13;22.63;;;14.20;99.90;;;;;;5006699;28;20065;-72
2022/09/11 00:50:16;;;;;;;27.20;23.15;;;14.20;99.90;;;;;;4986043;28;20134;-72
2022/09/11 00:52:52;;;;;;;25.23;22.55;;;14.20;99.90;;;;;;4988199;28;20081;-72
2022/09/11 00:55:21;;;;;;;25.50;22.85;;;14.20;99.90;;;;;;5008376;28;20118;-73
2022/09/11 00:57:57;;;;;;;25.35;22.73;;;15.00;99.90;;;;;;5005505;28;20541;-72
2022/09/11 01:00:22;;;;;;;24.20;21.70;;;14.20;99.90;;;;;;4987577;28;20103;-72
2022/09/11 01:02:50;;;;;;;24.10;21.55;;;14.20;99.90;;;;;;5004587;28;20568;-72
2022/09/11 01:05:17;;;;;;;25.02;22.52;;;14.30;99.90;;;;;;5007048;28;20041;-72
2022/09/11 01:07:45;;;;;;;23.83;21.42;;;14.30;99.90;;;;;;4969271;28;20053;-72
2022/09/11 01:10:11;;;;;;;23.90;21.45;;;14.90;99.90;;;;;;5005440;28;20073;-73
2022/09/11 01:12:40;;;;;;;22.80;20.40;;;14.40;99.90;;;;;;4984670;28;20084;-73
2022/09/11 01:15:07;;;;;;;23.70;20.70;;;15.20;99.90;;;;;;5005192;28;20561;-72
2022/09/11 01:18:02;;;;;;;21.58;19.33;;;14.40;99.90;;;;;;5007769;28;20046;-72
2022/09/11 01:20:42;;;;;;;22.23;19.85;;;14.40;99.90;;;;;;4973300;28;20050;-72
2022/09/11 01:23:43;;;;;;;24.73;20.75;;;14.40;99.90;;;;;;5008551;28;20042;-73
2022/09/11 01:26:35;;;;;;;22.00;18.98;;;14.40;99.90;;;;;;5002477;28;20387;-73
2022/09/11 01:29:01;;;;;;;21.30;18.88;;;14.40;99.90;;;;;;4971392;28;20141;-72
2022/09/11 01:31:35;;;;;;;21.33;19.33;;;14.40;99.90;;;;;;4971392;28;20382;-73
2022/09/11 01:34:37;;;;;;;21.42;19.13;;;15.00;99.90;;;;;;5007108;28;20045;-73
2022/09/11 01:37:13;;;;;;;21.27;19.15;;;14.30;99.90;;;;;;4982306;28;20073;-72
2022/09/11 01:39:47;;;;;;;21.83;19.60;;;14.40;99.90;;;;;;4971985;28;20045;-72
2022/09/11 01:42:17;;;;;;;20.45;18.42;;;14.30;99.90;;;;;;4989657;28;20433;-72
2022/09/11 01:44:49;;;;;;;20.88;18.73;;;14.20;99.90;;;;;;5007834;28;20049;-73
2022/09/11 01:47:18;;;;;;;20.20;18.05;;;14.30;99.90;;;;;;5006141;28;20042;-73
2022/09/11 01:49:46;;;;;;;19.80;17.88;;;14.30;99.90;;;;;;4984845;28;20042;-72
2022/09/11 01:52:22;;;;;;;21.08;19.13;;;14.30;99.90;;;;;;5011399;28;20049;-73
2022/09/11 01:54:55;;;;;;;19.80;17.85;;;14.30;99.90;;;;;;5008688;28;20033;-73
2022/09/11 01:57:48;;;;;;;20.67;18.80;;;14.20;99.90;;;;;;5010379;28;20050;-73
2022/09/11 02:00:15;;;;;;;19.17;17.25;;;14.20;99.90;;;;;;5013033;28;20182;-73
2022/09/11 02:03:13;;;;;;;20.30;17.60;;;14.40;99.90;;;;;;4991327;28;20045;-72
2022/09/11 02:05:51;;;;;;;19.45;17.42;;;14.20;99.90;;;;;;4990232;28;20164;-72
2022/09/11 02:08:30;;;;;;;19.65;17.80;;;14.20;99.90;;;;;;4991628;28;20117;-72
2022/09/11 02:11:03;;;;;;;20.33;18.20;;;14.20;99.90;;;;;;5007793;28;20058;-72
2022/09/11 02:13:35;;;;;;;19.83;17.85;;;14.10;99.90;;;;;;4977509;28;20050;-72
2022/09/11 02:16:10;;;;;;;19.60;17.80;;;14.20;99.90;;;;;;5013057;28;20117;-72
2022/09/11 02:19:11;;;;;;;18.92;16.70;;;14.10;99.90;;;;;;4977374;28;20048;-72
2022/09/11 02:21:37;;;;;;;18.52;16.73;;;14.10;99.90;;;;;;4958573;28;20048;-72
2022/09/11 02:24:04;;;;;;;20.02;18.17;;;14.00;99.90;;;;;;5009488;28;20048;-73
2022/09/11 02:26:33;;;;;;;19.17;17.38;;;14.00;99.90;;;;;;5012162;28;21277;-73
2022/09/11 02:28:59;;;;;;;20.02;18.05;;;14.10;99.90;;;;;;5008861;28;20076;-72
2022/09/11 02:31:25;;;;;;;18.95;17.05;;;14.00;99.90;;;;;;4992660;28;20073;-72
2022/09/11 02:33:50;;;;;;;18.98;16.98;;;14.00;99.90;;;;;;5013937;28;20116;-73
2022/09/11 02:36:19;;;;;;;18.58;16.67;;;13.90;99.90;;;;;;5009974;28;20520;-72
2022/09/11 02:38:59;;;;;;;18.27;16.55;;;13.90;99.90;;;;;;5013043;28;20497;-73
2022/09/11 02:41:44;;;;;;;17.42;15.85;;;13.90;99.90;;;;;;5009460;28;20082;-72
2022/09/11 02:44:28;;;;;;;17.55;15.77;;;13.90;99.90;;;;;;4990283;28;20044;-73
2022/09/11 02:47:17;;;;;;;18.92;17.10;;;13.90;99.90;;;;;;5012124;28;20169;-72
2022/09/11 02:49:52;;;;;;;18.55;16.00;;;13.80;99.90;;;;;;5004169;28;20492;-73
2022/09/11 02:52:43;;;;;;;17.98;16.08;;;13.80;99.90;;;;;;5011695;28;20049;-72
2022/09/11 02:55:19;;;;;;;17.58;15.98;;;13.80;99.90;;;;;;4974760;28;20728;-73
2022/09/11 02:58:02;;;;;;;18.02;16.13;;;13.70;99.90;;;;;;5006569;28;20383;-72
2022/09/11 03:00:27;;;;;;;16.20;14.63;;;13.70;99.90;;;;;;5007591;28;20482;-72
2022/09/11 03:02:53;;;;;;;16.60;14.98;;;13.70;99.90;;;;;;4989760;28;20073;-73
2022/09/11 03:05:19;;;;;;;17.60;15.77;;;13.70;99.90;;;;;;5009494;28;20057;-72
2022/09/11 03:07:45;;;;;;;16.45;14.93;;;13.70;99.90;;;;;;5006495;28;20042;-73
2022/09/11 03:10:10;;;;;;;15.68;14.07;;;13.70;99.90;;;;;;5008756;28;20041;-73
2022/09/11 03:12:37;;;;;;;17.70;15.30;;;13.60;99.90;;;;;;5004049;28;20057;-72
2022/09/11 03:15:04;;;;;;;17.25;15.55;;;13.60;99.90;;;;;;5008889;28;20048;-72
2022/09/11 03:17:31;;;;;;;16.00;14.50;;;13.60;99.90;;;;;;5004377;28;20172;-72
2022/09/11 03:19:56;;;;;;;16.50;15.07;;;13.50;99.90;;;;;;5007544;28;20038;-73
2022/09/11 03:22:25;;;;;;;16.63;13.50;;;14.10;99.90;;;;;;4992404;28;20042;-73
2022/09/11 03:24:50;;;;;;;15.43;14.00;;;13.50;99.90;;;;;;4972229;28;20118;-73
2022/09/11 03:27:16;;;;;;;15.23;13.80;;;13.60;99.90;;;;;;4991408;28;20315;-72
2022/09/11 03:29:43;;;;;;;14.90;13.23;;;13.50;99.90;;;;;;5005808;28;20046;-72
2022/09/11 03:32:09;;;;;;;19.25;13.77;;;13.60;99.90;;;;;;4992339;28;20042;-72
2022/09/11 03:34:35;;;;;;;18.10;13.57;;;13.70;99.90;;;;;;5006577;28;20420;-72
2022/09/11 03:37:01;;;;;;;16.35;12.75;;;13.50;99.90;;;;;;4992722;28;20042;-72
2022/09/11 03:39:26;;;;;;;13.82;12.63;;;13.50;99.90;;;;;;5004507;28;20053;-73
2022/09/11 03:41:53;;;;;;;14.05;12.68;;;13.50;99.90;;;;;;4992667;28;20532;-72
2022/09/11 03:44:19;;;;;;;12.77;11.68;;;13.50;99.90;;;;;;5005449;28;20045;-73
2022/09/11 03:46:44;;;;;;;12.45;11.25;;;13.50;99.90;;;;;;5007106;28;20038;-72
2022/09/11 03:49:10;;;;;;;11.65;10.45;;;13.50;99.90;;;;;;4992873;28;20049;-72
2022/09/11 03:51:36;;;;;;;11.77;10.52;;;13.40;99.90;;;;;;5005989;28;20057;-72
2022/09/11 03:54:02;;;;;;;12.82;11.60;;;13.40;99.90;;;;;;5009912;28;20077;-72
2022/09/11 03:56:28;;;;;;;11.43;10.43;;;13.40;99.90;;;;;;5004877;28;20081;-72
2022/09/11 03:58:56;;;;;;;12.85;11.60;;;13.40;99.90;;;;;;5009772;28;20065;-72
2022/09/11 04:01:22;;;;;;;11.80;10.70;;;13.40;99.90;;;;;;5004286;28;20069;-72
2022/09/11 04:03:47;;;;;;;12.80;11.52;;;13.40;99.90;;;;;;5007888;28;20042;-73
2022/09/11 04:06:13;;;;;;;11.98;10.77;;;13.80;99.90;;;;;;4986655;28;20145;-72
2022/09/11 04:08:40;;;;;;;11.48;10.30;;;13.80;99.90;;;;;;5005272;28;20095;-72
2022/09/11 04:11:06;;;;;;;11.35;10.30;;;13.30;99.90;;;;;;5009832;28;20054;-72
2022/09/11 04:13:36;;;;;;;11.60;10.50;;;13.30;99.90;;;;;;5004251;28;20448;-72
2022/09/11 04:16:04;;;;;;;11.50;10.43;;;13.30;99.90;;;;;;4985929;28;20149;-72
2022/09/11 04:18:35;;;;;;;10.98;9.98;;;13.20;99.90;;;;;;5003981;28;20092;-72
2022/09/11 04:21:12;;;;;;;12.43;10.25;;;13.20;99.90;;;;;;5008424;28;20532;-72
2022/09/11 04:23:38;;;;;;;11.38;10.38;;;13.30;99.90;;;;;;5002015;28;20042;-72
2022/09/11 04:26:16;;;;;;;11.45;10.35;;;13.30;99.90;;;;;;5008382;28;20096;-72
2022/09/11 04:28:42;;;;;;;9.95;9.15;;;13.20;99.90;;;;;;4972368;28;20486;-72
2022/09/11 04:31:08;;;;;;;10.93;10.02;;;13.40;99.90;;;;;;5006819;28;20045;-72
2022/09/11 04:33:35;;;;;;;11.25;10.15;;;13.30;99.90;;;;;;5008177;28;20253;-72
2022/09/11 04:36:09;;;;;;;11.38;10.35;;;13.20;99.90;;;;;;4988514;28;20108;-72
2022/09/11 04:38:36;;;;;;;11.68;10.68;;;13.20;99.90;;;;;;5008005;28;20038;-72
2022/09/11 04:41:04;;;;;;;12.27;9.90;;;13.50;99.90;;;;;;5002870;28;20038;-72
2022/09/11 04:43:30;;;;;;;10.57;9.68;;;13.20;99.90;;;;;;5004092;28;20104;-72
2022/09/11 04:46:03;;;;;;;10.50;9.68;;;13.20;99.90;;;;;;5006914;28;20050;-72
2022/09/11 04:48:29;;;;;;;9.98;9.07;;;13.10;99.90;;;;;;5003840;28;20099;-72
2022/09/11 04:51:04;;;;;;;10.38;9.50;;;13.10;99.90;;;;;;4971781;28;20060;-72
2022/09/11 04:53:31;;;;;;;10.65;9.63;;;13.10;99.90;;;;;;5008860;28;20053;-73
2022/09/11 04:56:09;;;;;;;10.95;9.88;;;13.10;99.90;;;;;;4987148;28;20458;-72
2022/09/11 04:58:35;;;;;;;11.98;10.73;;;13.10;99.90;;;;;;4990652;28;20038;-72
2022/09/11 05:01:09;;;;;;;9.77;8.98;;;13.30;99.90;;;;;;5004565;28;20029;-72
2022/09/11 05:03:35;;;;;;;12.13;9.77;;;13.00;99.90;;;;;;5006861;28;20074;-72
2022/09/11 05:06:09;;;;;;;9.95;9.02;;;13.80;99.90;;;;;;5003881;28;20081;-72
2022/09/11 05:08:38;;;;;;;11.15;10.00;;;13.00;99.90;;;;;;4988583;28;20077;-72
2022/09/11 05:11:04;;;;;;;10.25;9.00;;;12.90;99.90;;;;;;5008462;28;20061;-72
2022/09/11 05:13:31;;;;;;;11.23;7.95;;;13.00;99.90;;;;;;4986983;28;20093;-73
2022/09/11 05:16:02;;;;;;;9.27;8.48;;;12.90;99.90;;;;;;4983988;28;20048;-72
2022/09/11 05:18:28;;;;;;;8.57;7.88;;;13.00;99.90;;;;;;5007133;28;20034;-72
2022/09/11 05:21:14;;;;;;;7.80;7.10;;;12.90;99.90;;;;;;5004980;28;20425;-72
2022/09/11 05:23:40;;;;;;;6.88;6.38;;;12.90;99.90;;;;;;4987516;28;20085;-72
2022/09/11 05:26:16;;;;;;;9.00;7.18;;;12.90;99.90;;;;;;5006234;28;20045;-72
2022/09/11 05:28:42;;;;;;;7.43;6.63;;;12.90;99.90;;;;;;5003171;28;20056;-72
2022/09/11 05:31:16;;;;;;;7.82;6.35;;;12.90;99.90;;;;;;4988791;28;20046;-72
2022/09/11 05:33:44;;;;;;;6.50;5.90;;;12.80;99.90;;;;;;5003443;28;20397;-72
2022/09/11 05:36:10;;;;;;;6.45;6.05;;;12.70;99.90;;;;;;5005486;28;20721;-73
2022/09/11 05:38:36;;;;;;;7.28;6.65;;;12.80;99.90;;;;;;5007933;28;20121;-73
2022/09/11 05:41:07;;;;;;;6.40;5.80;;;12.80;99.90;;;;;;5004773;28;20116;-72
2022/09/11 05:43:34;;;;;;;6.55;5.95;;;12.80;99.90;;;;;;5005069;28;20084;-72
2022/09/11 05:45:59;;;;;;;6.47;5.97;;;12.80;99.90;;;;;;5006374;28;20489;-72
2022/09/11 05:48:32;;;;;;;6.72;6.18;;;12.90;99.90;;;;;;5004151;28;20096;-72
2022/09/11 05:51:05;;;;;;;5.75;5.30;;;12.90;99.90;;;;;;5000570;28;20040;-71
2022/09/11 05:53:32;;;;;;;7.53;6.23;;;12.90;99.90;;;;;;4985254;28;20042;-72
2022/09/11 05:56:04;;;;;;;9.40;8.60;;;12.90;99.90;;;;;;5005387;28;20040;-72
2022/09/11 05:58:32;;;;;;;7.80;7.03;;;13.50;99.90;;;;;;5008054;28;20444;-72
2022/09/11 06:01:09;;;;;;;8.38;7.68;;;13.10;99.90;;;;;;5003982;28;20096;-72
2022/09/11 06:03:36;;;;;;;8.68;7.18;;;13.00;99.90;;;;;;5007560;28;20125;-72
2022/09/11 06:06:07;;;;;;;9.07;8.18;;;13.00;99.90;;;;;;5003637;28;20042;-72
2022/09/11 06:08:34;;;;;;;9.73;8.38;;;13.00;99.90;;;;;;5006725;28;20041;-72
2022/09/11 06:11:01;;;;;;;11.95;10.85;;;13.00;99.90;;;;;;4985214;28;20054;-72
2022/09/11 06:13:32;;;;;;;10.75;9.85;;;13.10;99.90;;;;;;4987214;28;20531;-72
2022/09/11 06:15:58;;;;;;;11.02;10.02;;;13.60;99.90;;;;;;5000435;28;20061;-72
2022/09/11 06:18:25;;;;;;;12.02;10.98;;;13.10;99.90;;;;;;4987339;28;20046;-72
2022/09/11 06:21:02;;;;;;;9.75;8.95;;;13.10;99.90;;;;;;5006737;28;20052;-72
2022/09/11 06:23:28;;;;;;;10.13;9.23;;;13.20;99.90;;;;;;5003748;28;20042;-72
2022/09/11 06:26:01;;;;;;;10.05;9.25;;;13.20;99.90;;;;;;5005996;28;20511;-72
2022/09/11 06:28:27;;;;;;;13.80;12.18;;;13.30;99.90;;;;;;5002473;28;20057;-72
2022/09/11 06:30:53;;;;;;;12.77;11.55;;;13.30;99.90;;;;;;5005229;28;20033;-72
2022/09/11 06:33:19;;;;;;;15.35;13.52;;;13.40;99.90;;;;;;5007730;28;20073;-72
2022/09/11 06:35:58;;;;;;;15.23;12.40;;;13.50;99.90;;;;;;5003122;28;20048;-72
2022/09/11 06:38:25;;;;;;;14.60;12.73;;;13.50;99.90;;;;;;4994032;28;20034;-72
2022/09/11 06:40:51;;;;;;;13.15;11.95;;;14.00;99.90;;;;;;5005728;28;20393;-72
2022/09/11 06:43:17;;;;;;;17.30;13.85;;;13.60;99.90;;;;;;4990554;28;20038;-72
2022/09/11 06:45:43;;;;;;;13.30;12.02;;;13.70;99.90;;;;;;5010721;28;20042;-72
2022/09/11 06:48:09;;;;;;;12.63;11.32;;;13.70;99.90;;;;;;5007665;28;20038;-72
2022/09/11 06:50:39;;;;;;;16.38;14.52;;;13.80;99.90;;;;;;4992353;28;20116;-72
2022/09/11 06:53:06;;;;;;;14.13;12.80;;;13.80;99.90;;;;;;5011058;28;20486;-72
2022/09/11 06:55:32;;;;;;;16.05;14.38;;;13.90;99.90;;;;;;4993442;28;20056;-72
2022/09/11 06:57:58;;;;;;;13.30;12.00;;;14.00;99.90;;;;;;5010293;28;20046;-72
2022/09/11 07:00:24;;;;;;;12.70;11.48;;;14.10;99.90;;;;;;5010917;28;20505;-72
2022/09/11 07:02:52;;;;;;;10.98;9.55;;;14.10;99.90;;;;;;5010212;28;20054;-72
2022/09/11 07:05:18;;;;;;;15.55;12.98;;;14.10;99.90;;;;;;4993205;28;20046;-71
2022/09/11 07:07:45;;;;;;;14.82;12.00;;;14.20;99.90;;;;;;5011182;28;20045;-72
2022/09/11 07:10:10;;;;;;;14.35;13.02;;;14.30;99.90;;;;;;4992756;28;20461;-72
2022/09/11 07:12:40;;;;;;;12.98;11.43;;;14.30;99.90;;;;;;5010283;28;20137;-72
2022/09/11 07:15:07;;;;;;;13.52;12.23;;;14.40;99.90;;;;;;4993636;28;20044;-72
2022/09/11 07:17:33;;;;;;;13.50;11.80;;;14.50;99.90;;;;;;5010297;28;20081;-72
2022/09/11 07:19:58;;;;;;;13.13;11.68;;;14.60;99.90;;;;;;5005661;28;20076;-72
2022/09/11 07:22:24;;;;;;;14.65;11.43;;;14.70;99.90;;;;;;5011175;28;20034;-72
2022/09/11 07:24:53;;;;;;;12.93;11.68;;;15.60;99.90;;;;;;5003755;28;20141;-72
2022/09/11 07:27:20;;;;;;;12.95;11.52;;;14.80;99.90;;;;;;5004094;28;20056;-72
2022/09/11 07:29:45;;;;;;;16.90;14.55;;;14.90;99.90;;;;;;5009708;28;20049;-72
2022/09/11 07:32:11;;;;;;;13.25;11.95;;;15.00;99.90;;;;;;5008374;28;20037;-72
2022/09/11 07:34:37;;;;;;;14.05;11.68;;;15.10;99.90;;;;;;4993402;28;20800;-74
2022/09/11 07:37:03;;;;;;;12.43;11.23;;;15.10;99.90;;;;;;4992970;28;20489;-75
2022/09/11 07:39:28;;;;;;;16.27;12.25;;;15.10;99.90;;;;;;5009365;28;20049;-75
2022/09/11 07:41:54;;;;;;;15.18;12.63;;;16.10;99.90;;;;;;5009669;28;20434;-74
2022/09/11 07:44:22;;;;;;;13.25;12.07;;;15.40;99.90;;;;;;5010218;28;20041;-74
2022/09/11 07:46:51;;;;;;;14.63;13.23;;;15.40;99.90;;;;;;4990533;28;20545;-74
2022/09/11 07:49:17;;;;;;;14.20;12.57;;;15.40;99.90;;;;;;5007030;28;20050;-76
2022/09/11 07:51:43;;;;;;;19.60;14.05;;;15.40;99.90;;;;;;4991291;28;20133;-76
2022/09/11 07:54:09;;;;;;;14.82;13.25;;;16.10;99.90;;;;;;4990724;28;20042;-76
2022/09/11 07:56:35;;;;;;;14.48;12.25;;;15.50;99.90;;;;;;4992670;28;20409;-76
2022/09/11 07:59:06;;;;;;;14.00;12.60;;;15.60;99.90;;;;;;5002000;28;20945;-76
2022/09/11 08:01:33;;;;;;;13.13;11.77;;;15.70;99.90;;;;;;5010192;28;20579;-76
2022/09/11 08:04:01;;;;;;;12.48;11.13;;;15.70;99.90;;;;;;5001986;28;20489;-77
2022/09/11 08:06:30;;;;;;;13.82;12.55;;;15.70;99.90;;;;;;5008283;28;20484;-77
2022/09/11 08:08:58;;;;;;;11.15;10.10;;;15.80;99.90;;;;;;4990309;28;20041;-77
2022/09/11 08:11:25;;;;;;;10.82;9.73;;;15.80;99.90;;;;;;4988987;28;20060;-76
2022/09/11 08:13:52;;;;;;;13.45;10.45;;;15.80;99.90;;;;;;4975246;28;20085;-77
2022/09/11 08:16:23;;;;;;;10.93;10.00;;;16.40;99.90;;;;;;4989854;28;22144;-76
2022/09/11 08:18:49;;;;;;;13.82;10.30;;;16.00;99.90;;;;;;4991532;28;20053;-76
2022/09/11 08:21:15;;;;;;;9.73;8.73;;;16.10;99.90;;;;;;4988056;28;20097;-76
2022/09/11 08:23:42;;;;;;;11.50;8.70;;;16.10;99.90;;;;;;5009089;28;20179;-77
2022/09/11 08:26:14;;;;;;;12.07;8.98;;;16.20;99.90;;;;;;4985160;28;20124;-76
2022/09/11 08:28:43;;;;;;;8.90;7.75;;;16.80;99.90;;;;;;5007230;28;20127;-75
2022/09/11 08:31:11;;;;;;;8.80;7.78;;;16.40;99.90;;;;;;5002604;28;20050;-78
2022/09/11 08:33:37;;;;;;;9.00;6.97;;;17.40;99.90;;;;;;4975661;28;20048;-78
2022/09/11 08:36:05;;;;;;;6.18;4.75;;;16.60;99.90;;;;;;5008667;28;20500;-74
2022/09/11 08:38:32;;;;;;;10.20;5.07;;;16.70;99.90;;;;;;5006527;28;20401;-73
2022/09/11 08:41:08;;;;;;;6.80;5.90;;;17.60;99.90;;;;;;5008118;28;20096;-73
2022/09/11 08:43:37;;;;;;;6.70;4.95;;;17.00;99.90;;;;;;5008062;28;20045;-75
2022/09/11 08:46:08;;;;;;;6.10;4.40;;;17.10;99.90;;;;;;5006644;28;20536;-75
2022/09/11 08:49:11;;;;;;;5.53;4.05;;;17.50;99.90;;;;;;5004937;28;20504;-73
2022/09/11 08:51:39;;;;;;;8.00;5.60;;;17.10;99.90;;;;;;4956437;28;20502;-71
2022/09/11 08:54:05;;;;;;;7.53;5.25;;;17.50;99.90;;;;;;5006464;28;20045;-72
2022/09/11 08:56:35;;;;;;;6.78;4.88;;;17.70;99.90;;;;;;4990499;28;20050;-74
2022/09/11 08:59:22;;;;;;;7.40;4.43;;;17.30;99.90;;;;;;5003787;28;20046;-72
2022/09/11 09:01:56;;;;;;;5.78;4.05;;;17.30;99.90;;;;;;5006861;28;20069;-74
2022/09/11 09:04:39;;;;;;;6.13;3.53;;;17.30;99.90;;;;;;5006240;28;20489;-72
2022/09/11 09:07:08;;;;;;;6.15;4.80;;;17.30;99.90;;;;;;4985795;28;20125;-72
2022/09/11 09:10:30;;;;;;;7.63;5.25;;;17.30;99.90;;;;;;4990807;28;20378;-72
2022/09/11 09:13:14;;;;;;;10.05;5.47;;;17.30;99.90;;;;;;4928460;29;20529;-72
2022/09/11 09:16:18;;;;;;;9.88;5.35;;;17.30;99.90;;;;;;5007942;28;20070;-74
2022/09/11 09:19:13;;;;;;;5.88;5.25;;;17.30;99.90;;;;;;5000438;28;20088;-73
2022/09/11 09:21:58;;;;;;;5.85;4.88;;;17.30;99.90;;;;;;4972765;28;20062;-72
2022/09/11 09:24:27;;;;;;;6.15;5.53;;;17.60;99.90;;;;;;5002574;28;20105;-73
2022/09/11 09:26:55;;;;;;;7.93;5.75;;;17.30;99.90;;;;;;5008275;28;20125;-72
2022/09/11 09:29:24;;;;;;;5.82;4.38;;;17.40;99.90;;;;;;5000571;28;20049;-72
2022/09/11 09:31:57;;;;;;;5.95;4.63;;;17.40;99.90;;;;;;5007066;28;20103;-73
2022/09/11 09:34:26;;;;;;;7.95;4.63;;;17.40;99.90;;;;;;5004756;28;20038;-72
2022/09/11 09:37:02;;;;;;;5.03;3.10;;;17.40;99.90;;;;;;5007115;28;20052;-72
2022/09/11 09:39:29;;;;;;;5.38;3.03;;;17.50;99.90;;;;;;4969315;28;20490;-72
2022/09/11 09:42:11;;;;;;;6.65;3.88;;;17.60;99.90;;;;;;5006092;28;20508;-72
2022/09/11 09:44:45;;;;;;;3.47;3.17;;;17.50;99.90;;;;;;4973930;28;20065;-72
2022/09/11 09:47:12;;;;;;;7.50;4.90;;;17.60;99.90;;;;;;4986102;28;20437;-72
2022/09/11 09:49:39;;;;;;;6.30;4.90;;;17.60;99.90;;;;;;5006869;28;20056;-72
2022/09/11 09:52:18;;;;;;;8.70;5.15;;;17.60;99.90;;;;;;4985441;28;20046;-73
2022/09/11 09:54:52;;;;;;;6.80;5.70;;;17.60;99.90;;;;;;5005880;28;20053;-72
2022/09/11 09:57:17;;;;;;;;;;;17.60;99.90;;;;;;5000343;28;20116;-72
2022/09/11 09:59:51;;;;;;;8.45;5.53;;;17.60;99.90;;;;;;5004540;28;20004;-72
2022/09/11 10:02:35;;;;;;;5.53;5.03;;;17.60;99.90;;;;;;5007508;28;20042;-75
2022/09/11 10:05:26;;;;;;;6.00;5.15;;;17.60;99.90;;;;;;4990283;28;20123;-72
2022/09/11 10:07:52;;;;;;;7.10;4.68;;;17.70;99.90;;;;;;5004733;28;20050;-73
2022/09/11 10:10:28;;;;;;;5.13;4.53;;;17.80;99.90;;;;;;4983656;28;20070;-74
2022/09/11 10:12:58;;;;;;;6.22;4.38;;;17.70;99.90;;;;;;5010156;28;20072;-73
2022/09/11 10:15:24;;;;;;;6.10;3.45;;;17.70;99.90;;;;;;5004684;28;20092;-72
2022/09/11 10:17:52;;;;;;;4.60;3.55;;;17.80;99.90;;;;;;4994095;28;20049;-75
2022/09/11 10:20:17;;;;;;;7.40;3.72;;;17.90;99.90;;;;;;5007801;28;20057;-72
2022/09/11 10:22:46;;;;;;;5.70;3.22;;;18.00;99.90;;;;;;4993956;28;20042;-72
2022/09/11 10:25:14;;;;;;;5.72;3.65;;;18.10;99.90;;;;;;4991392;28;20113;-72
2022/09/11 10:27:58;;;;;;;3.72;2.67;;;18.20;99.90;;;;;;4990029;28;20113;-75
2022/09/11 10:30:30;;;;;;;4.43;2.80;;;18.30;99.90;;;;;;5003360;28;20048;-74
2022/09/11 10:32:58;;;;;;;6.72;2.40;;;18.40;99.90;;;;;;4991237;28;20044;-72
2022/09/11 10:35:26;;;;;;;3.10;1.88;;;18.80;99.90;;;;;;5003191;28;20116;-72
2022/09/11 10:38:16;;;;;;;3.53;2.10;;;18.70;99.90;;;;;;4994214;28;20065;-72
2022/09/11 10:40:56;;;;;;;5.45;1.80;;;18.80;99.90;;;;;;5005357;28;20409;-73
2022/09/11 10:43:25;;;;;;;2.97;1.83;;;18.80;99.90;;;;;;5011142;28;20088;-73
2022/09/11 10:46:02;;;;;;;2.90;1.38;;;19.90;99.90;;;;;;5005900;28;20093;-71
2022/09/11 10:48:28;;;;;;;3.78;1.27;;;18.90;99.90;;;;;;5008033;28;20048;-73
2022/09/11 10:51:05;;;;;;;7.13;3.95;;;19.10;99.90;;;;;;5010858;28;20440;-72
2022/09/11 10:53:38;;;;;;;3.05;1.83;;;19.20;99.90;;;;;;4989537;28;20038;-72
2022/09/11 10:56:04;;;;;;;4.63;1.73;;;19.40;99.90;;;;;;5008279;28;20076;-72
2022/09/11 10:58:37;;;;;;;3.05;1.35;;;19.60;99.90;;;;;;5007824;28;20489;-73
2022/09/11 11:01:03;;;;;;;3.40;1.23;;;19.70;99.90;;;;;;4991975;28;20049;-71
2022/09/11 11:03:29;;;;;;;5.78;1.40;;;19.90;99.90;;;;;;5002800;28;20126;-73
2022/09/11 11:06:00;;;;;;;2.80;1.17;;;19.90;99.90;;;;;;5010010;28;20049;-72
2022/09/11 11:09:01;;;;;;;1.10;0.90;;;20.00;99.90;;;;;;4983742;28;20046;-72
2022/09/11 11:11:59;;;;;;;3.13;0.95;;;20.10;99.90;;;;;;4997736;28;20049;-74
2022/09/11 11:15:04;;;;;;;1.83;1.58;;;20.10;99.90;;;;;;5006387;28;20467;-74
2022/09/11 11:17:35;;;;;;;3.80;1.77;;;20.00;99.90;;;;;;5007072;28;20294;-75
2022/09/11 11:20:02;;;;;;;3.50;1.77;;;20.20;99.90;;;;;;5005203;28;20049;-74
2022/09/11 11:22:42;;;;;;;4.43;1.77;;;19.80;99.90;;;;;;5006792;28;20049;-72
2022/09/11 11:25:26;;;;;;;4.07;1.80;;;19.70;99.90;;;;;;5008726;28;20049;-73
2022/09/11 11:28:25;;;;;;;3.57;1.60;;;19.60;99.90;;;;;;4990026;28;20046;-73
2022/09/11 11:31:33;;;;;;;5.60;1.77;;;19.50;99.90;;;;;;4999930;28;20054;-72
2022/09/11 11:34:08;;;;;;;2.10;1.30;;;19.30;99.90;;;;;;4992402;28;20369;-73
2022/09/11 11:36:48;;;;;;;3.33;1.80;;;19.40;99.90;;;;;;5001762;28;20108;-72
2022/09/11 11:39:19;;;;;;;3.60;2.08;;;19.30;99.90;;;;;;5005535;28;20133;-72
2022/09/11 11:41:59;;;;;;;3.90;2.65;;;19.30;99.90;;;;;;5010100;28;20072;-73
2022/09/11 11:44:57;;;;;;;5.32;2.03;;;19.20;99.90;;;;;;5003285;28;20104;-74
2022/09/11 11:47:29;;;;;;;9.20;6.13;;;19.30;99.90;;;;;;5007740;28;20551;-75
2022/09/11 11:50:22;;;;;;;4.45;2.85;;;19.30;99.90;;;;;;4988708;28;20405;-75
2022/09/11 11:53:00;;;;;;;6.90;2.92;;;19.30;99.90;;;;;;4980335;28;20050;-74
2022/09/11 11:55:37;;;;;;;1.52;1.42;;;19.20;99.90;;;;;;5006979;28;20081;-72
2022/09/11 11:58:23;;;;;;;2.17;1.80;;;19.50;99.90;;;;;;4991256;28;20049;-72
2022/09/11 12:00:56;;;;;;;5.25;1.67;;;19.80;99.90;;;;;;4986850;28;20497;-72
2022/09/11 12:03:46;;;;;;;3.17;1.70;;;20.10;99.90;;;;;;5007705;28;20042;-72
2022/09/11 12:06:12;;;;;;;2.67;1.55;;;20.30;99.90;;;;;;4968979;28;20038;-73
2022/09/11 12:08:45;;;;;;;3.03;1.05;;;20.60;99.90;;;;;;5006732;28;20049;-73
2022/09/11 12:11:14;;;;;;;2.80;1.10;;;20.60;99.90;;;;;;4991943;28;20064;-73
2022/09/11 12:13:43;;;;;;;1.80;1.15;;;20.60;99.90;;;;;;5007386;28;20054;-73
2022/09/11 12:16:32;;;;;;;4.00;1.33;;;20.60;99.90;;;;;;4991673;28;20092;-73
2022/09/11 12:19:15;;;;;;;1.98;0.75;;;20.50;99.90;;;;;;5005224;28;20049;-73
2022/09/11 12:22:05;;;;;;;4.65;1.30;;;20.40;99.90;;;;;;4981194;28;20046;-72
2022/09/11 12:24:52;;;;;;;4.47;1.80;;;20.40;99.90;;;;;;4988359;28;20058;-76
2022/09/11 12:27:32;;;;;;;5.05;2.67;;;20.30;99.90;;;;;;5008174;28;20030;-73
2022/09/11 12:30:08;;;;;;;5.13;1.65;;;20.20;99.90;;;;;;5006139;28;20129;-72
2022/09/11 12:32:49;;;;;;;4.72;1.35;;;20.20;99.90;;;;;;4975690;28;20037;-71
2022/09/11 12:35:37;;;;;;;3.05;1.08;;;20.10;99.90;;;;;;5007348;28;20478;-73
2022/09/11 12:38:05;;;;;;;5.28;0.98;;;20.10;99.90;;;;;;5005601;28;20351;-72
2022/09/11 12:40:55;;;;;;;2.80;0.85;;;20.10;99.90;;;;;;5000592;28;20050;-72
2022/09/11 12:43:45;;;;;;;1.98;1.10;;;20.10;99.90;;;;;;5009041;28;20482;-73
2022/09/11 12:46:22;;;;;;;0.90;0.90;;;20.20;99.90;;;;;;4991513;28;20128;-73
2022/09/11 12:48:53;;;;;;;2.58;1.05;;;20.20;99.90;;;;;;5000438;28;20474;-72
2022/09/11 12:51:24;;;;;;;2.42;1.02;;;20.10;99.90;;;;;;4989847;28;20453;-72
2022/09/11 12:53:54;;;;;;;3.78;1.40;;;20.00;99.90;;;;;;4990665;28;20049;-72
2022/09/11 12:56:22;;;;;;;2.75;1.10;;;20.00;99.90;;;;;;5004102;28;20042;-72
2022/09/11 12:58:57;;;;;;;3.30;1.15;;;20.00;99.90;;;;;;5006991;28;20569;-73
2022/09/11 13:01:29;;;;;;;4.05;1.05;;;20.10;99.90;;;;;;4989435;28;20041;-74